sensor_id;sensor_type;location;lat;lon;timestamp;P1;durP1;ratioP1;P2;durP2;ratioP2
11671;SDS011;5892;43.412;24.612;2023-05-16T00:01:56;12.37;;;4.93;;
11671;SDS011;5892;43.412;24.612;2023-05-16T00:04:24;8.87;;;5.13;;
11671;SDS011;5892;43.412;24.612;2023-05-16T00:06:51;8.47;;;4.90;;
11671;SDS011;5892;43.412;24.612;2023-05-16T00:09:18;6.57;;;5.00;;
11671;SDS011;5892;43.412;24.612;2023-05-16T00:11:45;7.70;;;4.63;;
11671;SDS011;5892;43.412;24.612;2023-05-16T00:14:14;6.50;;;4.77;;
11671;SDS011;5892;43.412;24.612;2023-05-16T00:16:41;7.63;;;5.30;;
11671;SDS011;5892;43.412;24.612;2023-05-16T00:19:08;9.03;;;5.20;;
11671;SDS011;5892;43.412;24.612;2023-05-16T00:21:35;6.30;;;4.90;;
11671;SDS011;5892;43.412;24.612;2023-05-16T00:24:02;9.07;;;5.20;;
11671;SDS011;5892;43.412;24.612;2023-05-16T00:26:29;8.23;;;4.73;;
11671;SDS011;5892;43.412;24.612;2023-05-16T00:28:56;10.57;;;4.93;;
11671;SDS011;5892;43.412;24.612;2023-05-16T00:31:24;11.97;;;5.40;;
11671;SDS011;5892;43.412;24.612;2023-05-16T00:33:51;7.90;;;5.80;;
11671;SDS011;5892;43.412;24.612;2023-05-16T00:36:18;6.87;;;5.57;;
11671;SDS011;5892;43.412;24.612;2023-05-16T00:38:46;6.43;;;5.67;;
11671;SDS011;5892;43.412;24.612;2023-05-16T00:41:12;8.17;;;5.43;;
11671;SDS011;5892;43.412;24.612;2023-05-16T00:43:39;7.40;;;5.70;;
11671;SDS011;5892;43.412;24.612;2023-05-16T00:46:06;9.20;;;6.07;;
11671;SDS011;5892;43.412;24.612;2023-05-16T00:48:34;12.17;;;7.20;;
11671;SDS011;5892;43.412;24.612;2023-05-16T00:51:01;12.27;;;6.20;;
11671;SDS011;5892;43.412;24.612;2023-05-16T00:53:33;9.50;;;6.43;;
11671;SDS011;5892;43.412;24.612;2023-05-16T00:56:00;12.83;;;6.77;;
11671;SDS011;5892;43.412;24.612;2023-05-16T00:58:28;9.33;;;6.23;;
11671;SDS011;5892;43.412;24.612;2023-05-16T01:00:58;10.10;;;7.03;;
11671;SDS011;5892;43.412;24.612;2023-05-16T01:03:26;10.17;;;7.03;;
11671;SDS011;5892;43.412;24.612;2023-05-16T01:05:54;10.77;;;6.77;;
11671;SDS011;5892;43.412;24.612;2023-05-16T01:08:23;7.87;;;6.10;;
11671;SDS011;5892;43.412;24.612;2023-05-16T01:10:52;10.43;;;6.20;;
11671;SDS011;5892;43.412;24.612;2023-05-16T01:13:30;8.73;;;5.83;;
11671;SDS011;5892;43.412;24.612;2023-05-16T01:16:08;9.27;;;6.00;;
11671;SDS011;5892;43.412;24.612;2023-05-16T01:18:42;9.47;;;6.20;;
11671;SDS011;5892;43.412;24.612;2023-05-16T01:21:18;10.20;;;5.70;;
11671;SDS011;5892;43.412;24.612;2023-05-16T01:23:59;8.27;;;5.20;;
11671;SDS011;5892;43.412;24.612;2023-05-16T01:26:31;7.23;;;5.13;;
11671;SDS011;5892;43.412;24.612;2023-05-16T01:28:58;7.50;;;5.63;;
11671;SDS011;5892;43.412;24.612;2023-05-16T01:31:28;8.97;;;5.37;;
11671;SDS011;5892;43.412;24.612;2023-05-16T01:33:55;6.10;;;5.00;;
11671;SDS011;5892;43.412;24.612;2023-05-16T01:36:24;6.77;;;4.77;;
11671;SDS011;5892;43.412;24.612;2023-05-16T01:39:02;6.67;;;4.97;;
11671;SDS011;5892;43.412;24.612;2023-05-16T01:41:40;6.57;;;5.10;;
11671;SDS011;5892;43.412;24.612;2023-05-16T01:44:15;5.57;;;4.37;;
11671;SDS011;5892;43.412;24.612;2023-05-16T01:46:47;8.30;;;5.40;;
11671;SDS011;5892;43.412;24.612;2023-05-16T01:49:21;10.80;;;7.00;;
11671;SDS011;5892;43.412;24.612;2023-05-16T01:51:54;7.40;;;6.70;;
11671;SDS011;5892;43.412;24.612;2023-05-16T01:54:26;6.17;;;5.10;;
11671;SDS011;5892;43.412;24.612;2023-05-16T01:56:58;8.13;;;5.40;;
11671;SDS011;5892;43.412;24.612;2023-05-16T01:59:28;8.00;;;5.80;;
11671;SDS011;5892;43.412;24.612;2023-05-16T02:01:57;7.07;;;5.53;;
11671;SDS011;5892;43.412;24.612;2023-05-16T02:04:24;8.27;;;5.47;;
11671;SDS011;5892;43.412;24.612;2023-05-16T02:06:50;8.83;;;5.00;;
11671;SDS011;5892;43.412;24.612;2023-05-16T02:09:18;7.60;;;4.90;;
11671;SDS011;5892;43.412;24.612;2023-05-16T02:11:44;8.33;;;5.00;;
11671;SDS011;5892;43.412;24.612;2023-05-16T02:14:13;13.73;;;6.80;;
11671;SDS011;5892;43.412;24.612;2023-05-16T02:16:40;10.43;;;6.10;;
11671;SDS011;5892;43.412;24.612;2023-05-16T02:19:07;11.37;;;6.30;;
11671;SDS011;5892;43.412;24.612;2023-05-16T02:21:34;11.73;;;6.00;;
11671;SDS011;5892;43.412;24.612;2023-05-16T02:24:01;21.90;;;10.30;;
11671;SDS011;5892;43.412;24.612;2023-05-16T02:26:27;8.23;;;4.80;;
11671;SDS011;5892;43.412;24.612;2023-05-16T02:28:54;9.83;;;7.27;;
11671;SDS011;5892;43.412;24.612;2023-05-16T02:31:26;8.60;;;6.63;;
11671;SDS011;5892;43.412;24.612;2023-05-16T02:33:54;18.57;;;9.80;;
11671;SDS011;5892;43.412;24.612;2023-05-16T02:36:21;9.83;;;7.23;;
11671;SDS011;5892;43.412;24.612;2023-05-16T02:38:47;7.20;;;5.60;;
11671;SDS011;5892;43.412;24.612;2023-05-16T02:41:14;9.50;;;5.70;;
11671;SDS011;5892;43.412;24.612;2023-05-16T02:43:41;8.37;;;5.33;;
11671;SDS011;5892;43.412;24.612;2023-05-16T02:46:25;6.43;;;5.20;;
11671;SDS011;5892;43.412;24.612;2023-05-16T02:48:54;6.37;;;4.80;;
11671;SDS011;5892;43.412;24.612;2023-05-16T02:51:22;6.50;;;5.13;;
11671;SDS011;5892;43.412;24.612;2023-05-16T02:53:50;12.80;;;5.47;;
11671;SDS011;5892;43.412;24.612;2023-05-16T02:56:18;6.30;;;4.80;;
11671;SDS011;5892;43.412;24.612;2023-05-16T02:58:46;6.80;;;5.10;;
11671;SDS011;5892;43.412;24.612;2023-05-16T03:01:14;5.77;;;5.17;;
11671;SDS011;5892;43.412;24.612;2023-05-16T03:03:43;8.87;;;5.70;;
11671;SDS011;5892;43.412;24.612;2023-05-16T03:06:09;10.07;;;5.73;;
11671;SDS011;5892;43.412;24.612;2023-05-16T03:08:36;9.83;;;6.40;;
11671;SDS011;5892;43.412;24.612;2023-05-16T03:11:03;13.50;;;7.30;;
11671;SDS011;5892;43.412;24.612;2023-05-16T03:13:30;8.07;;;6.17;;
11671;SDS011;5892;43.412;24.612;2023-05-16T03:15:57;8.43;;;5.80;;
11671;SDS011;5892;43.412;24.612;2023-05-16T03:18:24;7.87;;;5.63;;
11671;SDS011;5892;43.412;24.612;2023-05-16T03:20:52;6.80;;;6.10;;
11671;SDS011;5892;43.412;24.612;2023-05-16T03:23:19;6.60;;;5.90;;
11671;SDS011;5892;43.412;24.612;2023-05-16T03:25:46;9.33;;;6.37;;
11671;SDS011;5892;43.412;24.612;2023-05-16T03:28:14;11.00;;;6.57;;
11671;SDS011;5892;43.412;24.612;2023-05-16T03:30:42;10.10;;;6.40;;
11671;SDS011;5892;43.412;24.612;2023-05-16T03:33:08;11.33;;;6.53;;
11671;SDS011;5892;43.412;24.612;2023-05-16T03:35:35;10.30;;;6.00;;
11671;SDS011;5892;43.412;24.612;2023-05-16T03:38:04;8.73;;;7.00;;
11671;SDS011;5892;43.412;24.612;2023-05-16T03:40:31;10.77;;;6.53;;
11671;SDS011;5892;43.412;24.612;2023-05-16T03:42:58;8.20;;;6.60;;
11671;SDS011;5892;43.412;24.612;2023-05-16T03:45:25;9.47;;;6.57;;
11671;SDS011;5892;43.412;24.612;2023-05-16T03:47:52;7.90;;;6.43;;
11671;SDS011;5892;43.412;24.612;2023-05-16T03:50:19;9.50;;;6.53;;
11671;SDS011;5892;43.412;24.612;2023-05-16T03:52:47;13.20;;;6.60;;
11671;SDS011;5892;43.412;24.612;2023-05-16T03:55:15;7.83;;;6.73;;
11671;SDS011;5892;43.412;24.612;2023-05-16T03:57:42;11.30;;;6.60;;
11671;SDS011;5892;43.412;24.612;2023-05-16T04:00:11;9.87;;;5.97;;
11671;SDS011;5892;43.412;24.612;2023-05-16T04:02:38;8.30;;;6.60;;
11671;SDS011;5892;43.412;24.612;2023-05-16T04:05:06;8.93;;;6.60;;
11671;SDS011;5892;43.412;24.612;2023-05-16T04:07:34;14.20;;;6.80;;
11671;SDS011;5892;43.412;24.612;2023-05-16T04:10:01;9.50;;;6.47;;
11671;SDS011;5892;43.412;24.612;2023-05-16T04:12:30;14.73;;;7.17;;
11671;SDS011;5892;43.412;24.612;2023-05-16T04:14:56;11.07;;;6.87;;
11671;SDS011;5892;43.412;24.612;2023-05-16T04:17:23;10.17;;;6.30;;
11671;SDS011;5892;43.412;24.612;2023-05-16T04:19:50;10.77;;;6.60;;
11671;SDS011;5892;43.412;24.612;2023-05-16T04:22:19;10.67;;;6.73;;
11671;SDS011;5892;43.412;24.612;2023-05-16T04:24:46;10.83;;;6.73;;
11671;SDS011;5892;43.412;24.612;2023-05-16T04:27:13;10.83;;;6.90;;
11671;SDS011;5892;43.412;24.612;2023-05-16T04:29:42;10.17;;;6.90;;
11671;SDS011;5892;43.412;24.612;2023-05-16T04:32:08;7.40;;;6.70;;
11671;SDS011;5892;43.412;24.612;2023-05-16T04:34:36;15.00;;;7.30;;
11671;SDS011;5892;43.412;24.612;2023-05-16T04:37:03;11.00;;;6.87;;
11671;SDS011;5892;43.412;24.612;2023-05-16T04:39:31;10.77;;;6.90;;
11671;SDS011;5892;43.412;24.612;2023-05-16T04:41:58;8.63;;;6.40;;
11671;SDS011;5892;43.412;24.612;2023-05-16T04:44:25;10.70;;;6.80;;
11671;SDS011;5892;43.412;24.612;2023-05-16T04:46:54;14.60;;;6.93;;
11671;SDS011;5892;43.412;24.612;2023-05-16T04:49:21;11.37;;;6.50;;
11671;SDS011;5892;43.412;24.612;2023-05-16T04:51:48;17.80;;;6.87;;
11671;SDS011;5892;43.412;24.612;2023-05-16T04:54:15;11.17;;;6.60;;
11671;SDS011;5892;43.412;24.612;2023-05-16T04:56:41;15.83;;;7.43;;
11671;SDS011;5892;43.412;24.612;2023-05-16T04:59:08;15.47;;;7.63;;
11671;SDS011;5892;43.412;24.612;2023-05-16T05:01:35;15.63;;;7.57;;
11671;SDS011;5892;43.412;24.612;2023-05-16T05:04:03;12.23;;;7.90;;
11671;SDS011;5892;43.412;24.612;2023-05-16T05:06:30;11.90;;;7.83;;
11671;SDS011;5892;43.412;24.612;2023-05-16T05:08:57;11.77;;;7.60;;
11671;SDS011;5892;43.412;24.612;2023-05-16T05:11:24;15.23;;;7.80;;
11671;SDS011;5892;43.412;24.612;2023-05-16T05:13:51;15.53;;;8.20;;
11671;SDS011;5892;43.412;24.612;2023-05-16T05:16:18;12.70;;;7.90;;
11671;SDS011;5892;43.412;24.612;2023-05-16T05:18:45;12.50;;;7.67;;
11671;SDS011;5892;43.412;24.612;2023-05-16T05:21:13;13.43;;;7.20;;
11671;SDS011;5892;43.412;24.612;2023-05-16T05:23:44;11.37;;;7.50;;
11671;SDS011;5892;43.412;24.612;2023-05-16T05:26:13;10.10;;;7.50;;
11671;SDS011;5892;43.412;24.612;2023-05-16T05:28:40;12.43;;;8.10;;
11671;SDS011;5892;43.412;24.612;2023-05-16T05:31:07;14.87;;;7.80;;
11671;SDS011;5892;43.412;24.612;2023-05-16T05:33:33;11.67;;;8.00;;
11671;SDS011;5892;43.412;24.612;2023-05-16T05:36:00;11.37;;;7.67;;
11671;SDS011;5892;43.412;24.612;2023-05-16T05:38:28;11.83;;;8.30;;
11671;SDS011;5892;43.412;24.612;2023-05-16T05:40:55;16.10;;;8.47;;
11671;SDS011;5892;43.412;24.612;2023-05-16T05:43:22;13.70;;;8.90;;
11671;SDS011;5892;43.412;24.612;2023-05-16T05:45:49;12.10;;;8.00;;
11671;SDS011;5892;43.412;24.612;2023-05-16T05:48:16;17.83;;;9.07;;
11671;SDS011;5892;43.412;24.612;2023-05-16T05:50:43;18.50;;;9.30;;
11671;SDS011;5892;43.412;24.612;2023-05-16T05:53:10;15.70;;;7.80;;
11671;SDS011;5892;43.412;24.612;2023-05-16T05:55:38;15.77;;;8.33;;
11671;SDS011;5892;43.412;24.612;2023-05-16T05:58:06;11.83;;;7.70;;
11671;SDS011;5892;43.412;24.612;2023-05-16T06:00:36;12.13;;;7.80;;
11671;SDS011;5892;43.412;24.612;2023-05-16T06:03:03;11.00;;;8.23;;
11671;SDS011;5892;43.412;24.612;2023-05-16T06:05:30;10.73;;;8.20;;
11671;SDS011;5892;43.412;24.612;2023-05-16T06:07:56;9.17;;;7.53;;
11671;SDS011;5892;43.412;24.612;2023-05-16T06:10:23;7.50;;;6.80;;
11671;SDS011;5892;43.412;24.612;2023-05-16T06:12:52;10.50;;;7.27;;
11671;SDS011;5892;43.412;24.612;2023-05-16T06:15:18;11.57;;;7.20;;
11671;SDS011;5892;43.412;24.612;2023-05-16T06:17:45;10.17;;;6.30;;
11671;SDS011;5892;43.412;24.612;2023-05-16T06:20:14;8.07;;;7.00;;
11671;SDS011;5892;43.412;24.612;2023-05-16T06:22:40;7.27;;;5.13;;
11671;SDS011;5892;43.412;24.612;2023-05-16T06:25:08;12.63;;;5.13;;
11671;SDS011;5892;43.412;24.612;2023-05-16T06:27:35;6.40;;;5.33;;
11671;SDS011;5892;43.412;24.612;2023-05-16T06:30:03;6.30;;;4.80;;
11671;SDS011;5892;43.412;24.612;2023-05-16T06:32:31;7.30;;;5.00;;
11671;SDS011;5892;43.412;24.612;2023-05-16T06:34:58;8.13;;;5.20;;
11671;SDS011;5892;43.412;24.612;2023-05-16T06:37:25;7.17;;;4.70;;
11671;SDS011;5892;43.412;24.612;2023-05-16T06:39:52;6.27;;;4.83;;
11671;SDS011;5892;43.412;24.612;2023-05-16T06:42:20;7.53;;;4.93;;
11671;SDS011;5892;43.412;24.612;2023-05-16T06:44:46;7.50;;;4.73;;
11671;SDS011;5892;43.412;24.612;2023-05-16T06:47:14;7.63;;;4.50;;
11671;SDS011;5892;43.412;24.612;2023-05-16T06:49:41;10.17;;;4.70;;
11671;SDS011;5892;43.412;24.612;2023-05-16T06:52:08;5.23;;;4.20;;
11671;SDS011;5892;43.412;24.612;2023-05-16T06:54:36;5.10;;;4.33;;
11671;SDS011;5892;43.412;24.612;2023-05-16T06:57:04;7.33;;;4.90;;
11671;SDS011;5892;43.412;24.612;2023-05-16T06:59:32;6.77;;;5.07;;
11671;SDS011;5892;43.412;24.612;2023-05-16T07:02:00;8.17;;;5.40;;
11671;SDS011;5892;43.412;24.612;2023-05-16T07:04:28;7.27;;;5.60;;
11671;SDS011;5892;43.412;24.612;2023-05-16T07:06:55;8.57;;;5.23;;
11671;SDS011;5892;43.412;24.612;2023-05-16T07:09:22;6.23;;;5.10;;
11671;SDS011;5892;43.412;24.612;2023-05-16T07:11:48;7.00;;;5.07;;
11671;SDS011;5892;43.412;24.612;2023-05-16T07:14:15;8.90;;;5.57;;
11671;SDS011;5892;43.412;24.612;2023-05-16T07:16:42;6.67;;;5.17;;
11671;SDS011;5892;43.412;24.612;2023-05-16T07:19:09;9.63;;;5.53;;
11671;SDS011;5892;43.412;24.612;2023-05-16T07:21:37;7.13;;;5.47;;
11671;SDS011;5892;43.412;24.612;2023-05-16T07:24:05;7.47;;;5.10;;
11671;SDS011;5892;43.412;24.612;2023-05-16T07:26:32;6.97;;;5.23;;
11671;SDS011;5892;43.412;24.612;2023-05-16T07:28:59;6.28;;;4.75;;
11671;SDS011;5892;43.412;24.612;2023-05-16T07:31:28;8.53;;;5.57;;
11671;SDS011;5892;43.412;24.612;2023-05-16T07:33:55;9.67;;;5.50;;
11671;SDS011;5892;43.412;24.612;2023-05-16T07:36:22;11.33;;;6.00;;
11671;SDS011;5892;43.412;24.612;2023-05-16T07:38:50;8.17;;;6.30;;
11671;SDS011;5892;43.412;24.612;2023-05-16T07:41:17;11.80;;;6.67;;
11671;SDS011;5892;43.412;24.612;2023-05-16T07:43:44;10.60;;;6.20;;
11671;SDS011;5892;43.412;24.612;2023-05-16T07:46:11;12.43;;;6.00;;
11671;SDS011;5892;43.412;24.612;2023-05-16T07:48:38;9.53;;;5.60;;
11671;SDS011;5892;43.412;24.612;2023-05-16T07:51:05;8.90;;;5.60;;
11671;SDS011;5892;43.412;24.612;2023-05-16T07:53:32;9.77;;;6.00;;
11671;SDS011;5892;43.412;24.612;2023-05-16T07:56:00;7.87;;;6.00;;
11671;SDS011;5892;43.412;24.612;2023-05-16T07:58:27;9.57;;;6.37;;
11671;SDS011;5892;43.412;24.612;2023-05-16T08:00:54;10.10;;;6.00;;
11671;SDS011;5892;43.412;24.612;2023-05-16T08:03:21;10.33;;;5.97;;
11671;SDS011;5892;43.412;24.612;2023-05-16T08:05:48;9.77;;;6.43;;
11671;SDS011;5892;43.412;24.612;2023-05-16T08:08:15;10.47;;;5.93;;
11671;SDS011;5892;43.412;24.612;2023-05-16T08:10:42;9.47;;;5.70;;
11671;SDS011;5892;43.412;24.612;2023-05-16T08:13:10;7.40;;;6.33;;
11671;SDS011;5892;43.412;24.612;2023-05-16T08:15:38;10.77;;;6.80;;
11671;SDS011;5892;43.412;24.612;2023-05-16T08:18:05;9.97;;;7.23;;
11671;SDS011;5892;43.412;24.612;2023-05-16T08:20:38;10.53;;;7.70;;
11671;SDS011;5892;43.412;24.612;2023-05-16T08:23:05;9.97;;;7.10;;
11671;SDS011;5892;43.412;24.612;2023-05-16T08:25:33;9.47;;;6.53;;
11671;SDS011;5892;43.412;24.612;2023-05-16T08:28:00;12.53;;;6.53;;
11671;SDS011;5892;43.412;24.612;2023-05-16T08:30:28;8.00;;;5.90;;
11671;SDS011;5892;43.412;24.612;2023-05-16T08:32:55;8.60;;;5.57;;
11671;SDS011;5892;43.412;24.612;2023-05-16T08:35:22;6.80;;;5.07;;
11671;SDS011;5892;43.412;24.612;2023-05-16T08:37:49;9.57;;;5.20;;
11671;SDS011;5892;43.412;24.612;2023-05-16T08:40:16;7.80;;;5.13;;
11671;SDS011;5892;43.412;24.612;2023-05-16T08:42:43;6.23;;;5.63;;
11671;SDS011;5892;43.412;24.612;2023-05-16T08:45:10;11.63;;;5.90;;
11671;SDS011;5892;43.412;24.612;2023-05-16T08:47:40;9.70;;;5.70;;
11671;SDS011;5892;43.412;24.612;2023-05-16T08:50:09;9.17;;;6.00;;
11671;SDS011;5892;43.412;24.612;2023-05-16T08:52:37;11.23;;;6.67;;
11671;SDS011;5892;43.412;24.612;2023-05-16T08:55:05;11.03;;;6.77;;
11671;SDS011;5892;43.412;24.612;2023-05-16T08:57:35;9.50;;;6.70;;
11671;SDS011;5892;43.412;24.612;2023-05-16T09:00:04;10.83;;;7.13;;
11671;SDS011;5892;43.412;24.612;2023-05-16T09:02:36;11.73;;;6.90;;
11671;SDS011;5892;43.412;24.612;2023-05-16T09:05:05;14.43;;;7.10;;
11671;SDS011;5892;43.412;24.612;2023-05-16T09:07:36;10.70;;;6.83;;
11671;SDS011;5892;43.412;24.612;2023-05-16T09:10:03;14.33;;;9.33;;
11671;SDS011;5892;43.412;24.612;2023-05-16T09:12:31;10.93;;;6.93;;
11671;SDS011;5892;43.412;24.612;2023-05-16T09:14:58;12.57;;;7.00;;
11671;SDS011;5892;43.412;24.612;2023-05-16T09:17:28;11.33;;;7.00;;
11671;SDS011;5892;43.412;24.612;2023-05-16T09:20:09;10.37;;;6.77;;
11671;SDS011;5892;43.412;24.612;2023-05-16T09:22:36;9.97;;;6.93;;
11671;SDS011;5892;43.412;24.612;2023-05-16T09:25:04;10.43;;;7.50;;
11671;SDS011;5892;43.412;24.612;2023-05-16T09:27:31;12.73;;;7.57;;
11671;SDS011;5892;43.412;24.612;2023-05-16T09:29:58;14.73;;;7.40;;
11671;SDS011;5892;43.412;24.612;2023-05-16T09:32:25;17.43;;;7.20;;
11671;SDS011;5892;43.412;24.612;2023-05-16T09:34:53;11.77;;;7.50;;
11671;SDS011;5892;43.412;24.612;2023-05-16T09:37:24;9.87;;;6.73;;
11671;SDS011;5892;43.412;24.612;2023-05-16T09:39:51;12.37;;;6.63;;
11671;SDS011;5892;43.412;24.612;2023-05-16T09:42:20;8.77;;;6.77;;
11671;SDS011;5892;43.412;24.612;2023-05-16T09:44:48;9.70;;;6.83;;
11671;SDS011;5892;43.412;24.612;2023-05-16T09:47:16;10.43;;;6.87;;
11671;SDS011;5892;43.412;24.612;2023-05-16T09:49:44;18.50;;;6.50;;
11671;SDS011;5892;43.412;24.612;2023-05-16T09:52:11;10.43;;;6.30;;
11671;SDS011;5892;43.412;24.612;2023-05-16T09:54:40;9.60;;;6.70;;
11671;SDS011;5892;43.412;24.612;2023-05-16T09:57:07;11.10;;;6.23;;
11671;SDS011;5892;43.412;24.612;2023-05-16T09:59:34;10.90;;;6.00;;
11671;SDS011;5892;43.412;24.612;2023-05-16T10:02:02;9.20;;;6.50;;
11671;SDS011;5892;43.412;24.612;2023-05-16T10:04:32;10.37;;;6.77;;
11671;SDS011;5892;43.412;24.612;2023-05-16T10:07:01;14.10;;;6.77;;
11671;SDS011;5892;43.412;24.612;2023-05-16T10:09:30;11.90;;;6.57;;
11671;SDS011;5892;43.412;24.612;2023-05-16T10:12:01;9.30;;;6.80;;
11671;SDS011;5892;43.412;24.612;2023-05-16T10:14:29;12.93;;;6.80;;
11671;SDS011;5892;43.412;24.612;2023-05-16T10:17:00;9.53;;;7.03;;
11671;SDS011;5892;43.412;24.612;2023-05-16T10:19:28;8.80;;;7.03;;
11671;SDS011;5892;43.412;24.612;2023-05-16T10:21:59;10.17;;;7.50;;
11671;SDS011;5892;43.412;24.612;2023-05-16T10:24:28;13.33;;;8.50;;
11671;SDS011;5892;43.412;24.612;2023-05-16T10:27:01;10.00;;;8.13;;
11671;SDS011;5892;43.412;24.612;2023-05-16T10:29:29;12.57;;;8.17;;
11671;SDS011;5892;43.412;24.612;2023-05-16T10:31:56;10.93;;;8.40;;
11671;SDS011;5892;43.412;24.612;2023-05-16T10:34:24;11.20;;;7.50;;
11671;SDS011;5892;43.412;24.612;2023-05-16T10:36:52;8.90;;;8.00;;
11671;SDS011;5892;43.412;24.612;2023-05-16T10:39:20;8.50;;;7.60;;
11671;SDS011;5892;43.412;24.612;2023-05-16T10:41:47;9.60;;;8.07;;
11671;SDS011;5892;43.412;24.612;2023-05-16T10:44:16;14.17;;;8.07;;
11671;SDS011;5892;43.412;24.612;2023-05-16T10:46:43;15.03;;;8.10;;
11671;SDS011;5892;43.412;24.612;2023-05-16T10:49:21;13.87;;;8.40;;
11671;SDS011;5892;43.412;24.612;2023-05-16T10:52:02;9.83;;;7.93;;
11671;SDS011;5892;43.412;24.612;2023-05-16T10:54:34;14.20;;;8.73;;
11671;SDS011;5892;43.412;24.612;2023-05-16T10:57:06;11.70;;;8.50;;
11671;SDS011;5892;43.412;24.612;2023-05-16T10:59:40;18.60;;;8.03;;
11671;SDS011;5892;43.412;24.612;2023-05-16T11:02:25;16.70;;;7.73;;
11671;SDS011;5892;43.412;24.612;2023-05-16T11:04:54;9.80;;;7.50;;
11671;SDS011;5892;43.412;24.612;2023-05-16T11:07:23;10.47;;;8.47;;
11671;SDS011;5892;43.412;24.612;2023-05-16T11:10:01;11.10;;;8.80;;
11671;SDS011;5892;43.412;24.612;2023-05-16T11:12:36;15.70;;;8.97;;
11671;SDS011;5892;43.412;24.612;2023-05-16T11:18:05;14.53;;;9.13;;
11671;SDS011;5892;43.412;24.612;2023-05-16T11:20:34;13.07;;;8.57;;
11671;SDS011;5892;43.412;24.612;2023-05-16T11:25:52;9.43;;;8.13;;
11671;SDS011;5892;43.412;24.612;2023-05-16T11:28:23;12.43;;;7.87;;
11671;SDS011;5892;43.412;24.612;2023-05-16T11:30:52;9.37;;;8.30;;
11671;SDS011;5892;43.412;24.612;2023-05-16T11:33:21;11.10;;;8.40;;
11671;SDS011;5892;43.412;24.612;2023-05-16T11:36:02;11.03;;;8.50;;
11671;SDS011;5892;43.412;24.612;2023-05-16T11:38:30;15.20;;;9.33;;
11671;SDS011;5892;43.412;24.612;2023-05-16T11:41:01;13.40;;;9.33;;
11671;SDS011;5892;43.412;24.612;2023-05-16T11:43:35;14.90;;;12.00;;
11671;SDS011;5892;43.412;24.612;2023-05-16T11:46:04;12.40;;;9.77;;
11671;SDS011;5892;43.412;24.612;2023-05-16T11:48:32;13.60;;;10.00;;
11671;SDS011;5892;43.412;24.612;2023-05-16T11:50:59;15.53;;;10.27;;
11671;SDS011;5892;43.412;24.612;2023-05-16T11:53:26;15.87;;;10.50;;
11671;SDS011;5892;43.412;24.612;2023-05-16T11:55:54;13.97;;;9.40;;
11671;SDS011;5892;43.412;24.612;2023-05-16T11:58:24;16.87;;;10.23;;
11671;SDS011;5892;43.412;24.612;2023-05-16T12:00:52;12.23;;;10.30;;
11671;SDS011;5892;43.412;24.612;2023-05-16T12:03:21;11.40;;;10.27;;
11671;SDS011;5892;43.412;24.612;2023-05-16T12:05:49;12.67;;;10.27;;
11671;SDS011;5892;43.412;24.612;2023-05-16T12:08:17;13.90;;;10.50;;
11671;SDS011;5892;43.412;24.612;2023-05-16T12:10:46;11.57;;;10.27;;
11671;SDS011;5892;43.412;24.612;2023-05-16T12:13:14;12.70;;;10.53;;
11671;SDS011;5892;43.412;24.612;2023-05-16T12:15:42;11.90;;;10.13;;
11671;SDS011;5892;43.412;24.612;2023-05-16T12:18:09;10.83;;;9.77;;
11671;SDS011;5892;43.412;24.612;2023-05-16T12:20:38;12.27;;;9.63;;
11671;SDS011;5892;43.412;24.612;2023-05-16T12:23:09;13.43;;;9.73;;
11671;SDS011;5892;43.412;24.612;2023-05-16T12:25:36;11.47;;;10.27;;
11671;SDS011;5892;43.412;24.612;2023-05-16T12:28:08;17.17;;;10.80;;
11671;SDS011;5892;43.412;24.612;2023-05-16T12:30:38;14.07;;;10.27;;
11671;SDS011;5892;43.412;24.612;2023-05-16T12:33:07;16.03;;;10.47;;
11671;SDS011;5892;43.412;24.612;2023-05-16T12:35:38;11.43;;;9.90;;
11671;SDS011;5892;43.412;24.612;2023-05-16T12:38:09;12.57;;;9.60;;
11671;SDS011;5892;43.412;24.612;2023-05-16T12:40:37;13.03;;;10.20;;
11671;SDS011;5892;43.412;24.612;2023-05-16T12:43:11;14.17;;;9.40;;
11671;SDS011;5892;43.412;24.612;2023-05-16T12:45:39;18.77;;;14.43;;
11671;SDS011;5892;43.412;24.612;2023-05-16T12:48:10;11.93;;;10.03;;
11671;SDS011;5892;43.412;24.612;2023-05-16T12:50:39;18.30;;;9.83;;
11671;SDS011;5892;43.412;24.612;2023-05-16T12:53:09;10.67;;;9.03;;
11671;SDS011;5892;43.412;24.612;2023-05-16T12:55:38;14.97;;;10.23;;
11671;SDS011;5892;43.412;24.612;2023-05-16T12:58:05;10.97;;;9.00;;
11671;SDS011;5892;43.412;24.612;2023-05-16T13:00:34;13.43;;;9.10;;
11671;SDS011;5892;43.412;24.612;2023-05-16T13:03:01;12.73;;;8.30;;
11671;SDS011;5892;43.412;24.612;2023-05-16T13:05:29;11.93;;;8.93;;
11671;SDS011;5892;43.412;24.612;2023-05-16T13:07:57;16.67;;;9.10;;
11671;SDS011;5892;43.412;24.612;2023-05-16T13:10:24;11.63;;;8.53;;
11671;SDS011;5892;43.412;24.612;2023-05-16T13:12:51;11.27;;;8.43;;
11671;SDS011;5892;43.412;24.612;2023-05-16T13:15:18;9.03;;;7.70;;
11671;SDS011;5892;43.412;24.612;2023-05-16T13:17:45;7.97;;;7.13;;
11671;SDS011;5892;43.412;24.612;2023-05-16T13:20:12;9.63;;;8.00;;
11671;SDS011;5892;43.412;24.612;2023-05-16T13:22:39;10.00;;;7.77;;
11671;SDS011;5892;43.412;24.612;2023-05-16T13:25:09;8.43;;;7.33;;
11671;SDS011;5892;43.412;24.612;2023-05-16T13:27:36;9.87;;;7.07;;
11671;SDS011;5892;43.412;24.612;2023-05-16T13:30:03;14.53;;;7.40;;
11671;SDS011;5892;43.412;24.612;2023-05-16T13:32:31;12.10;;;8.70;;
11671;SDS011;5892;43.412;24.612;2023-05-16T13:34:58;15.77;;;10.70;;
11671;SDS011;5892;43.412;24.612;2023-05-16T13:37:25;13.30;;;8.70;;
11671;SDS011;5892;43.412;24.612;2023-05-16T13:39:52;12.23;;;8.40;;
11671;SDS011;5892;43.412;24.612;2023-05-16T13:42:21;11.47;;;8.20;;
11671;SDS011;5892;43.412;24.612;2023-05-16T13:44:48;10.60;;;8.77;;
11671;SDS011;5892;43.412;24.612;2023-05-16T13:47:15;17.50;;;9.93;;
11671;SDS011;5892;43.412;24.612;2023-05-16T13:49:42;23.73;;;12.23;;
11671;SDS011;5892;43.412;24.612;2023-05-16T13:52:09;11.73;;;8.33;;
11671;SDS011;5892;43.412;24.612;2023-05-16T13:54:36;12.67;;;9.37;;
11671;SDS011;5892;43.412;24.612;2023-05-16T13:57:04;32.40;;;16.60;;
11671;SDS011;5892;43.412;24.612;2023-05-16T13:59:32;15.53;;;9.60;;
11671;SDS011;5892;43.412;24.612;2023-05-16T14:01:59;21.17;;;9.93;;
11671;SDS011;5892;43.412;24.612;2023-05-16T14:04:26;11.77;;;8.60;;
11671;SDS011;5892;43.412;24.612;2023-05-16T14:06:53;13.63;;;9.23;;
11671;SDS011;5892;43.412;24.612;2023-05-16T14:09:20;14.23;;;8.67;;
11671;SDS011;5892;43.412;24.612;2023-05-16T14:11:47;13.23;;;8.70;;
11671;SDS011;5892;43.412;24.612;2023-05-16T14:14:14;11.47;;;8.07;;
11671;SDS011;5892;43.412;24.612;2023-05-16T14:16:42;10.13;;;7.77;;
11671;SDS011;5892;43.412;24.612;2023-05-16T14:19:10;9.90;;;8.17;;
11671;SDS011;5892;43.412;24.612;2023-05-16T14:21:37;9.03;;;8.03;;
11671;SDS011;5892;43.412;24.612;2023-05-16T14:24:05;9.43;;;8.40;;
11671;SDS011;5892;43.412;24.612;2023-05-16T14:26:42;13.53;;;8.97;;
11671;SDS011;5892;43.412;24.612;2023-05-16T14:29:09;16.67;;;10.50;;
11671;SDS011;5892;43.412;24.612;2023-05-16T14:31:37;15.37;;;8.67;;
11671;SDS011;5892;43.412;24.612;2023-05-16T14:34:05;12.83;;;8.90;;
11671;SDS011;5892;43.412;24.612;2023-05-16T14:36:32;13.77;;;8.23;;
11671;SDS011;5892;43.412;24.612;2023-05-16T14:38:59;14.37;;;8.50;;
11671;SDS011;5892;43.412;24.612;2023-05-16T14:41:26;16.80;;;8.90;;
11671;SDS011;5892;43.412;24.612;2023-05-16T14:43:53;12.13;;;8.90;;
11671;SDS011;5892;43.412;24.612;2023-05-16T14:46:20;11.80;;;8.80;;
11671;SDS011;5892;43.412;24.612;2023-05-16T14:48:47;12.43;;;8.73;;
11671;SDS011;5892;43.412;24.612;2023-05-16T14:51:15;13.77;;;8.40;;